Chapel Hill, NC (27517)

6:29 AM EST on March 06, 2015 (GMT -0500)
Cosgrove Hill | Change Station
CLOSE
Current Station
Personal Weather Station
Location: Chapel Hill, NC
Elevation: 325 ft
Nearby Weather Stations
Active Advisory: Winter Weather Advisory

Elev 325 ft 35.95 °N, 79.02 °W | Updated 6 seconds ago

Overcast
Overcast
27.1 °F
Feels Like 27 °F
N
0.9
Wind Variable Wind from East
Gusts 1.0 mph

Today
High -- | Low -- °F
--% Chance of Precip.
Yesterday
High -- | Low -- °F
Precip. -- in
6:39 AM 6:15 PM
Full, 100% visible
Pressure 30.47 in
Visibility 10.0 miles
Clouds Overcast 2100 ft
Windchill 27 °F
Dew Point 21 °F
Humidity 78%
Rainfall in
Snow Depth Not available.
UV 0 out of 12
Pollen .90 out of 12
Air Quality Not available.
Flu Activity Not available.
METAR KIGX 061056Z AUTO 03010KT 10SM OVC021 M03/M07 A3046 RMK AO2 SLP317 T10281072 TSNO $

More Conditions Fewer Conditions

Pressure 30.47 in
Visibility 10.0 miles
Clouds Overcast 2100 ft
Windchill 27 °F
Dew Point 21 °F
Humidity 78%
Rainfall in
Snow Depth Not available.
UV 0 out of 12
Pollen .90 out of 12
Air Quality Not available.
Flu Activity Not available.
METAR KIGX 061056Z AUTO 03010KT 10SM OVC021 M03/M07 A3046 RMK AO2 SLP317 T10281072 TSNO $

More Conditions Fewer Conditions

10-Day Weather Forecast

Almanac

Astronomy

Mar. 06, 2015 Rise Set
Actual Time
Civil Twilight
Nautical Twilight
Astronomical Twilight
Moon
Length of Visible Light
Length of Day
Tomorrow will be .
, % of the Moon is Illuminated

Today's Extremes

State Highs State Lows

Community

WunderPhotos

Upload Photos

1,803,225 photos uploaded!

WunderBlogs® & News

Nearby

Air Quality

  Air Quality AQ Index Pollutant
Not available.

Snow Depth

Station Depth Elevation

Earthquake Activity

City Distance Mag. Time & Date
Minimum magnitude displayed is 2.5.

Coastal Water Temperatures

Place Temperature

Nearby Weather Stations

Winter Weather Advisory
Statement as of 3:52 AM EST on March 06, 2015

... Winter Weather Advisory remains in effect until noon EST
today...

* locations... the Piedmont and portions of the coastal plain of
North Carolina... including The Triad and Triangle... Roxboro...
Rocky Mount... Smithfield and Goldsboro.

* Hazard types... patchy black ice.

* Timing... through noon today when temperatures will rise into the
mid 30s and full sun is reached.

* Impacts... hazardous travel and walking conditions.

* Temperatures... in the 20s.

Precautionary/preparedness actions...

A Winter Weather Advisory has been issued due to patchy black ice
formation on some secondary roads... bridges... overpasses... and
some exit ramps. Motorists should exercise extreme caution and go
much slower than normal speed in case ice is encountered. Those
walking should use caution especially on stairs and sidewalks that
do not get sun exposure and are more likely to have black ice.